| time (UTC) | temp F | wind direction | speed knots | gust knots | rain 1hr in | rain 24hr in | rain mn in | humidity % | barometer mb |
| 20260901062146 | 72 | 189 | 0.9 | 1.7 | 0.00 | 0.00 | 0.00 | 96 | 1016.9 |
| 20260901061116 | 72 | 197 | 0.9 | 0.9 | 0.00 | 0.00 | 0.00 | 96 | 1016.9 |
| 20260901060554 | 72 | 193 | 0.0 | 0.9 | 0.00 | 0.00 | 0.00 | 97 | 1017.0 |
| 20260901055525 | 72 | 232 | 1.7 | 2.6 | 0.00 | 0.00 | 0.00 | 97 | 1017.2 |
| 20260901054455 | 72 | 167 | 0.9 | 1.7 | 0.00 | 0.00 | 0.00 | 97 | 1017.1 |
| 20260901053434 | 72 | 196 | 0.9 | 1.7 | 0.00 | 0.00 | 0.00 | 97 | 1017.3 |
| 20260901052405 | 72 | 185 | 0.0 | 0.9 | 0.00 | 0.00 | 0.00 | 97 | 1017.2 |
| 20260901051337 | 72 | 176 | 0.9 | 1.7 | 0.00 | 0.00 | 0.00 | 96 | 1017.3 |
| 20260901050308 | 72 | 190 | 0.9 | 0.9 | 0.00 | 0.00 | 0.00 | 96 | 1017.6 |
| 20260901045246 | 72 | 0.0 | 0.9 | 0.00 | 0.00 | 0.00 | 95 | 1017.7 | |
| 20260901044237 | 72 | 180 | 1.7 | 2.6 | 0.00 | 0.00 | 0.00 | 95 | 1017.7 |
| 20260901043156 | 73 | 174 | 0.0 | 0.9 | 0.00 | 0.00 | 0.00 | 94 | 1018.0 |
| 20260901042127 | 72 | 0.0 | 0.0 | 0.00 | 0.00 | 0.00 | 94 | 1017.9 | |
| 20260901041604 | 72 | 0.0 | 0.0 | 0.00 | 0.00 | 0.00 | 94 | 1017.9 | |
| 20260901040534 | 72 | 0.0 | 0.9 | 0.00 | 0.00 | 0.00 | 93 | 1018.0 | |
| 20260901035505 | 72 | 0.0 | 0.0 | 0.00 | 0.00 | 0.00 | 92 | 1018.1 | |
| 20260901034436 | 72 | 0.0 | 0.0 | 0.00 | 0.00 | 0.00 | 93 | 1017.9 | |
| 20260901033411 | 72 | 0.0 | 0.0 | 0.00 | 0.00 | 0.00 | 92 | 1017.9 | |
| 20260901032346 | 72 | 0.0 | 0.0 | 0.00 | 0.00 | 0.00 | 92 | 1018.1 | |
| 20260901031321 | 71 | 0.0 | 0.0 | 0.00 | 0.00 | 0.00 | 90 | 1018.3 | |
| 20260901030312 | 71 | 0.0 | 0.0 | 0.00 | 0.00 | 0.00 | 89 | 1018.4 | |
| 20260901025226 | 72 | 0.0 | 0.0 | 0.00 | 0.00 | 0.00 | 89 | 1018.1 | |
| 20260901024157 | 72 | 0.0 | 0.0 | 0.00 | 0.00 | 0.00 | 88 | 1018.0 | |
| 20260901023639 | 72 | 0.0 | 0.0 | 0.00 | 0.00 | 0.00 | 89 | 1018.4 | |
| 20260901022610 | 72 | 0.0 | 0.0 | 0.00 | 0.00 | 0.00 | 89 | 1018.1 | |
| 20260901021545 | 73 | 0.0 | 0.0 | 0.00 | 0.00 | 0.00 | 87 | 1018.3 | |
| 20260901020540 | 73 | 0.0 | 0.0 | 0.00 | 0.00 | 0.00 | 87 | 1018.3 | |
| 20260901015451 | 72 | 0.0 | 0.0 | 0.00 | 0.00 | 0.00 | 88 | 1018.2 | |
| 20260901014426 | 73 | 0.0 | 0.0 | 0.00 | 0.00 | 0.00 | 87 | 1018.3 | |
| 20260901013401 | 72 | 0.0 | 0.0 | 0.00 | 0.00 | 0.00 | 88 | 1018.2 | |
| 20260901012336 | 73 | 0.0 | 0.0 | 0.00 | 0.00 | 0.00 | 86 | 1018.3 | |
| 20260901011311 | 73 | 0.0 | 0.0 | 0.00 | 0.00 | 0.00 | 87 | 1018.2 | |
| 20260901010242 | 74 | 0.0 | 0.0 | 0.00 | 0.00 | 0.00 | 84 | 1018.1 | |
| 20260901005233 | 74 | 0.0 | 0.0 | 0.00 | 0.00 | 0.00 | 84 | 1018.1 | |
| 20260901004228 | 74 | 0.0 | 0.0 | 0.00 | 0.00 | 0.00 | 84 | 1018.2 | |
| 20260901003626 | 74 | 0.0 | 0.0 | 0.00 | 0.00 | 0.00 | 83 | 1018.1 | |
| 20260901002601 | 74 | 0.0 | 0.0 | 0.00 | 0.00 | 0.00 | 84 | 1017.9 | |
| 20260901001536 | 74 | 0.0 | 0.0 | 0.00 | 0.00 | 0.00 | 88 | 1017.8 | |
| 20260901000506 | 74 | 0.0 | 0.0 | 0.00 | 0.00 | 0.00 | 86 | 1017.6 | |
| 20260831235457 | 74 | 0.0 | 0.0 | 0.00 | 0.00 | 0.00 | 85 | 1017.8 | |
| 20260831234428 | 75 | 0.0 | 0.0 | 0.00 | 0.00 | 0.00 | 83 | 1017.8 | |
| 20260831233339 | 76 | 169 | 0.0 | 0.9 | 0.00 | 0.00 | 0.00 | 80 | 1017.9 |
| 20260831232310 | 77 | 0.0 | 0.0 | 0.00 | 0.00 | 0.00 | 78 | 1018.0 | |
| 20260831231245 | 77 | 0.0 | 0.9 | 0.00 | 0.00 | 0.00 | 77 | 1017.9 | |
| 20260831230215 | 77 | 184 | 0.0 | 1.7 | 0.00 | 0.00 | 0.00 | 74 | 1018.2 |
| 20260831225720 | 77 | 182 | 0.9 | 1.7 | 0.00 | 0.00 | 0.00 | 74 | 1018.3 |
| 20260831224651 | 78 | 187 | 0.9 | 1.7 | 0.00 | 0.00 | 0.00 | 73 | 1018.5 |
| 20260831223602 | 78 | 0.0 | 0.9 | 0.00 | 0.00 | 0.00 | 75 | 1018.0 | |
| 20260831222557 | 78 | 178 | 0.9 | 1.7 | 0.00 | 0.00 | 0.00 | 73 | 1018.2 |
| 20260831221508 | 80 | 160 | 1.7 | 1.7 | 0.00 | 0.00 | 0.00 | 72 | 1018.3 |
| 20260831220439 | 78 | 175 | 0.9 | 1.7 | 0.00 | 0.00 | 0.00 | 73 | 1018.8 |
| 20260831215409 | 78 | 0.0 | 0.0 | 0.00 | 0.00 | 0.00 | 75 | 1018.7 | |
| 20260831214345 | 78 | 148 | 0.0 | 0.9 | 0.00 | 0.00 | 0.00 | 75 | 1018.7 |
| 20260831213319 | 77 | 0.0 | 0.9 | 0.00 | 0.00 | 0.00 | 76 | 1018.8 | |
| 20260831212255 | 77 | 193 | 1.7 | 1.7 | 0.00 | 0.00 | 0.00 | 76 | 1018.8 |
| 20260831211226 | 76 | 116 | 0.0 | 2.6 | 0.00 | 0.00 | 0.00 | 78 | 1018.9 |
| 20260831210201 | 76 | 101 | 0.9 | 0.9 | 0.00 | 0.00 | 0.00 | 77 | 1018.8 |
| 20260831205131 | 76 | 0.0 | 0.9 | 0.00 | 0.00 | 0.00 | 76 | 1018.6 | |
| 20260831204126 | 77 | 193 | 1.7 | 2.6 | 0.00 | 0.00 | 0.00 | 75 | 1019.0 |
| 20260831203053 | 77 | 151 | 0.9 | 1.7 | 0.00 | 0.00 | 0.00 | 75 | 1018.9 |
| 20260831202002 | 77 | 244 | 1.7 | 2.6 | 0.00 | 0.00 | 0.00 | 74 | 1019.1 |
| 20260831200937 | 78 | 328 | 2.6 | 3.5 | 0.00 | 0.00 | 0.00 | 72 | 1019.1 |
| 20260831195927 | 77 | 177 | 0.9 | 1.7 | 0.00 | 0.00 | 0.00 | 73 | 1018.9 |
| 20260831194849 | 77 | 0.0 | 0.9 | 0.00 | 0.00 | 0.00 | 74 | 1019.2 | |
| 20260831193821 | 78 | 224 | 1.7 | 3.5 | 0.00 | 0.00 | 0.00 | 70 | 1019.2 |
| 20260831192814 | 78 | 190 | 0.9 | 1.7 | 0.00 | 0.00 | 0.00 | 70 | 1019.7 |
| 20260831191748 | 79 | 176 | 0.9 | 0.9 | 0.00 | 0.00 | 0.00 | 68 | 1019.5 |
| 20260831190659 | 78 | 176 | 0.0 | 1.7 | 0.00 | 0.00 | 0.00 | 71 | 1019.8 |
| 20260831185633 | 79 | 0.0 | 0.9 | 0.00 | 0.00 | 0.00 | 70 | 1019.5 | |
| 20260831185117 | 78 | 188 | 0.9 | 1.7 | 0.00 | 0.00 | 0.00 | 69 | 1019.7 |
| 20260831184047 | 79 | 236 | 2.6 | 3.5 | 0.00 | 0.00 | 0.00 | 69 | 1019.9 |
| 20260831183018 | 78 | 195 | 1.7 | 1.7 | 0.00 | 0.00 | 0.00 | 68 | 1019.6 |
| 20260831181953 | 79 | 191 | 0.0 | 0.9 | 0.00 | 0.00 | 0.00 | 67 | 1019.9 |
| 20260831180948 | 80 | 204 | 1.7 | 1.7 | 0.00 | 0.00 | 0.00 | 65 | 1019.8 |
| 20260831175907 | 78 | 176 | 1.7 | 1.7 | 0.00 | 0.00 | 0.00 | 67 | 1019.9 |
| 20260831174842 | 78 | 205 | 2.6 | 3.5 | 0.00 | 0.00 | 0.00 | 68 | 1019.9 |
| 20260831173841 | 79 | 169 | 0.9 | 0.9 | 0.00 | 0.00 | 0.00 | 66 | 1019.9 |
| 20260831172751 | 79 | 193 | 0.9 | 2.6 | 0.00 | 0.00 | 0.00 | 67 | 1019.8 |
| 20260831171723 | 79 | 186 | 0.9 | 1.7 | 0.00 | 0.00 | 0.00 | 68 | 1019.9 |
| 20260831170653 | 79 | 301 | 2.6 | 3.5 | 0.00 | 0.00 | 0.00 | 69 | 1019.9 |
| 20260831165628 | 78 | 176 | 0.9 | 2.6 | 0.00 | 0.00 | 0.00 | 71 | 1019.9 |
| 20260831165117 | 80 | 0.0 | 0.9 | 0.00 | 0.00 | 0.00 | 68 | 1019.8 | |
| 20260831164048 | 78 | 141 | 1.7 | 1.7 | 0.00 | 0.00 | 0.00 | 70 | 1019.8 |
| 20260831163023 | 78 | 175 | 1.7 | 2.6 | 0.00 | 0.00 | 0.00 | 70 | 1020.0 |
| 20260831161954 | 76 | 248 | 3.5 | 3.5 | 0.00 | 0.00 | 0.00 | 73 | 1020.2 |
| 20260831160925 | 76 | 223 | 2.6 | 2.6 | 0.00 | 0.00 | 0.00 | 75 | 1020.2 |
| 20260831155856 | 74 | 0.0 | 1.7 | 0.00 | 0.00 | 0.00 | 76 | 1020.1 | |
| 20260831154827 | 75 | 0.0 | 0.9 | 0.00 | 0.00 | 0.00 | 74 | 1020.4 | |
| 20260831153802 | 74 | 264 | 1.7 | 2.6 | 0.00 | 0.00 | 0.00 | 76 | 1020.1 |
| 20260831152733 | 74 | 0.0 | 0.0 | 0.00 | 0.00 | 0.00 | 78 | 1020.1 | |
| 20260831151708 | 73 | 158 | 0.9 | 1.7 | 0.00 | 0.00 | 0.00 | 79 | 1020.2 |
| 20260831150703 | 74 | 0.0 | 0.0 | 0.00 | 0.00 | 0.00 | 77 | 1020.2 | |
| 20260831145618 | 74 | 0.0 | 0.9 | 0.00 | 0.00 | 0.00 | 77 | 1020.2 | |
| 20260831145120 | 73 | 0.0 | 0.9 | 0.00 | 0.00 | 0.00 | 79 | 1020.5 | |
| 20260831144031 | 73 | 0.0 | 0.9 | 0.00 | 0.00 | 0.00 | 78 | 1020.6 | |
| 20260831143002 | 74 | 0.0 | 0.9 | 0.00 | 0.00 | 0.00 | 77 | 1020.7 | |
| 20260831141953 | 73 | 0.0 | 0.0 | 0.00 | 0.00 | 0.00 | 78 | 1020.6 | |
| 20260831140903 | 73 | 87 | 0.9 | 0.9 | 0.00 | 0.00 | 0.00 | 78 | 1020.2 |
| 20260831135834 | 74 | 120 | 0.0 | 0.9 | 0.00 | 0.00 | 0.00 | 76 | 1020.4 |
| 20260831134805 | 74 | 165 | 0.9 | 1.7 | 0.00 | 0.00 | 0.00 | 76 | 1020.4 |
| 20260831133736 | 74 | 129 | 0.0 | 0.9 | 0.00 | 0.00 | 0.00 | 77 | 1020.2 |
| 20260831132727 | 74 | 0.0 | 1.7 | 0.00 | 0.00 | 0.00 | 76 | 1020.0 | |
| 20260831131638 | 73 | 48 | 0.9 | 3.5 | 0.00 | 0.00 | 0.00 | 77 | 1020.2 |
| 20260831131116 | 72 | 0.0 | 0.0 | 0.00 | 0.00 | 0.00 | 80 | 1020.4 | |
| 20260831130047 | 73 | 0.0 | 1.7 | 0.00 | 0.00 | 0.00 | 81 | 1020.2 | |
| 20260831125022 | 73 | 0.0 | 0.0 | 0.00 | 0.00 | 0.00 | 80 | 1020.4 | |
| 20260831124013 | 72 | 0.0 | 0.0 | 0.00 | 0.00 | 0.00 | 83 | 1020.2 | |
| 20260831122924 | 72 | 0.0 | 0.0 | 0.00 | 0.00 | 0.00 | 83 | 1020.0 | |
| 20260831121856 | 71 | 178 | 2.6 | 2.6 | 0.00 | 0.00 | 0.00 | 84 | 1020.1 |
| 20260831120851 | 71 | 0.0 | 0.0 | 0.00 | 0.00 | 0.00 | 85 | 1020.1 | |
| 20260831115802 | 71 | 0.0 | 0.9 | 0.00 | 0.00 | 0.00 | 84 | 1020.0 | |
| 20260831114736 | 71 | 0.0 | 0.0 | 0.00 | 0.00 | 0.00 | 84 | 1020.0 | |
| 20260831113708 | 71 | 0.0 | 0.9 | 0.00 | 0.00 | 0.00 | 84 | 1019.9 | |
| 20260831113146 | 71 | 0.0 | 0.0 | 0.00 | 0.00 | 0.00 | 84 | 1019.9 | |
| 20260831112117 | 71 | 0.0 | 0.9 | 0.00 | 0.00 | 0.00 | 84 | 1019.8 | |
| 20260831111052 | 71 | 0.0 | 0.0 | 0.00 | 0.00 | 0.00 | 85 | 1019.4 | |
| 20260831110023 | 71 | 0.0 | 0.0 | 0.00 | 0.00 | 0.00 | 84 | 1019.4 | |
| 20260831104958 | 71 | 0.0 | 0.0 | 0.00 | 0.00 | 0.00 | 85 | 1019.6 | |
| 20260831103929 | 71 | 0.0 | 0.0 | 0.00 | 0.00 | 0.00 | 84 | 1019.5 | |
| 20260831102904 | 71 | 0.0 | 0.0 | 0.00 | 0.00 | 0.00 | 85 | 1019.3 | |
| 20260831101835 | 71 | 0.0 | 0.0 | 0.00 | 0.00 | 0.00 | 86 | 1019.5 | |
| 20260831100830 | 71 | 0.0 | 0.0 | 0.00 | 0.00 | 0.00 | 86 | 1019.1 | |
| 20260831095805 | 71 | 0.0 | 0.0 | 0.00 | 0.00 | 0.00 | 86 | 1018.9 | |
| 20260831094716 | 71 | 151 | 0.9 | 0.9 | 0.00 | 0.00 | 0.00 | 87 | 1019.0 |
| 20260831094202 | 71 | 0.0 | 0.9 | 0.00 | 0.00 | 0.00 | 88 | 1018.8 | |
| 20260831093213 | 71 | 0.0 | 0.0 | 0.00 | 0.00 | 0.00 | 89 | 1018.5 | |
| 20260831092104 | 71 | 0.0 | 0.0 | 0.00 | 0.00 | 0.00 | 90 | 1018.6 | |
| 20260831091035 | 71 | 163 | 0.9 | 1.7 | 0.00 | 0.00 | 0.00 | 92 | 1018.6 |
| 20260831090005 | 71 | 133 | 0.9 | 0.9 | 0.00 | 0.00 | 0.00 | 92 | 1018.7 |
| 20260831084940 | 70 | 0.0 | 0.0 | 0.00 | 0.00 | 0.00 | 93 | 1018.6 | |
| 20260831083956 | 70 | 0.0 | 0.0 | 0.00 | 0.00 | 0.00 | 94 | 1018.7 | |
| 20260831082846 | 71 | 0.0 | 0.0 | 0.00 | 0.00 | 0.00 | 94 | 1018.8 | |
| 20260831081822 | 71 | 0.0 | 0.0 | 0.00 | 0.00 | 0.00 | 94 | 1018.9 | |
| 20260831080753 | 70 | 0.0 | 0.0 | 0.00 | 0.00 | 0.00 | 94 | 1018.6 | |
| 20260831075724 | 71 | 0.0 | 0.0 | 0.00 | 0.00 | 0.00 | 93 | 1018.7 | |
| 20260831074659 | 71 | 0.0 | 0.0 | 0.00 | 0.00 | 0.00 | 94 | 1018.8 | |
| 20260831074145 | 71 | 0.0 | 0.0 | 0.00 | 0.00 | 0.00 | 94 | 1018.7 | |
| 20260831073115 | 70 | 181 | 0.9 | 0.9 | 0.00 | 0.00 | 0.00 | 94 | 1018.6 |
| 20260831072046 | 70 | 0.0 | 0.9 | 0.00 | 0.00 | 0.00 | 94 | 1018.7 | |
| 20260831071025 | 70 | 0.0 | 0.0 | 0.00 | 0.00 | 0.00 | 93 | 1018.7 | |
| 20260831065955 | 70 | 0.0 | 0.0 | 0.00 | 0.00 | 0.00 | 93 | 1018.7 | |
| 20260831064947 | 70 | 0.0 | 0.9 | 0.00 | 0.00 | 0.00 | 93 | 1018.8 | |
| 20260831063901 | 71 | 201 | 0.9 | 1.7 | 0.00 | 0.00 | 0.00 | 93 | 1019.1 |